sensor_id;sensor_type;location;lat;lon;timestamp;P1;durP1;ratioP1;P2;durP2;ratioP2
47778;SDS011;33538;48.432;11.350;2023-05-31T00:00:15;2.70;;;1.50;;
47778;SDS011;33538;48.432;11.350;2023-05-31T00:02:42;3.85;;;1.50;;
47778;SDS011;33538;48.432;11.350;2023-05-31T00:05:10;5.82;;;1.85;;
47778;SDS011;33538;48.432;11.350;2023-05-31T00:07:37;4.72;;;1.77;;
47778;SDS011;33538;48.432;11.350;2023-05-31T00:10:04;3.85;;;2.08;;
47778;SDS011;33538;48.432;11.350;2023-05-31T00:12:31;3.05;;;1.48;;
47778;SDS011;33538;48.432;11.350;2023-05-31T00:14:58;5.13;;;1.50;;
47778;SDS011;33538;48.432;11.350;2023-05-31T00:17:27;4.38;;;1.88;;
47778;SDS011;33538;48.432;11.350;2023-05-31T00:19:56;3.03;;;1.77;;
47778;SDS011;33538;48.432;11.350;2023-05-31T00:22:25;4.38;;;1.80;;
47778;SDS011;33538;48.432;11.350;2023-05-31T00:28:19;3.80;;;1.55;;
47778;SDS011;33538;48.432;11.350;2023-05-31T00:30:46;5.28;;;1.65;;
47778;SDS011;33538;48.432;11.350;2023-05-31T00:33:13;4.80;;;1.60;;
47778;SDS011;33538;48.432;11.350;2023-05-31T00:35:40;3.10;;;1.70;;
47778;SDS011;33538;48.432;11.350;2023-05-31T00:38:08;3.40;;;1.40;;
47778;SDS011;33538;48.432;11.350;2023-05-31T00:40:35;2.03;;;1.30;;
47778;SDS011;33538;48.432;11.350;2023-05-31T00:43:01;4.65;;;1.73;;
47778;SDS011;33538;48.432;11.350;2023-05-31T00:45:28;2.97;;;1.27;;
47778;SDS011;33538;48.432;11.350;2023-05-31T00:47:55;2.17;;;1.83;;
47778;SDS011;33538;48.432;11.350;2023-05-31T00:50:22;3.00;;;1.60;;
47778;SDS011;33538;48.432;11.350;2023-05-31T00:52:50;5.68;;;1.30;;
47778;SDS011;33538;48.432;11.350;2023-05-31T00:55:20;7.47;;;1.60;;
47778;SDS011;33538;48.432;11.350;2023-05-31T00:57:47;5.75;;;1.88;;
47778;SDS011;33538;48.432;11.350;2023-05-31T01:00:14;3.17;;;1.80;;
47778;SDS011;33538;48.432;11.350;2023-05-31T01:02:41;4.40;;;1.80;;
47778;SDS011;33538;48.432;11.350;2023-05-31T01:05:09;4.07;;;1.42;;
47778;SDS011;33538;48.432;11.350;2023-05-31T01:07:36;3.95;;;1.73;;
47778;SDS011;33538;48.432;11.350;2023-05-31T01:10:03;2.72;;;1.60;;
47778;SDS011;33538;48.432;11.350;2023-05-31T01:12:35;2.38;;;1.33;;
47778;SDS011;33538;48.432;11.350;2023-05-31T01:15:11;2.95;;;1.42;;
47778;SDS011;33538;48.432;11.350;2023-05-31T01:17:42;3.72;;;1.70;;
47778;SDS011;33538;48.432;11.350;2023-05-31T01:20:13;3.22;;;1.65;;
47778;SDS011;33538;48.432;11.350;2023-05-31T01:22:45;3.63;;;1.45;;
47778;SDS011;33538;48.432;11.350;2023-05-31T01:28:32;1.90;;;1.08;;
47778;SDS011;33538;48.432;11.350;2023-05-31T01:31:02;3.38;;;1.50;;
47778;SDS011;33538;48.432;11.350;2023-05-31T01:33:32;4.13;;;1.92;;
47778;SDS011;33538;48.432;11.350;2023-05-31T01:35:59;1.80;;;1.50;;
47778;SDS011;33538;48.432;11.350;2023-05-31T01:38:26;2.65;;;1.42;;
47778;SDS011;33538;48.432;11.350;2023-05-31T01:40:53;3.40;;;1.50;;
47778;SDS011;33538;48.432;11.350;2023-05-31T01:43:21;1.60;;;1.30;;
47778;SDS011;33538;48.432;11.350;2023-05-31T01:45:51;2.72;;;1.67;;
47778;SDS011;33538;48.432;11.350;2023-05-31T01:48:18;2.83;;;1.25;;
47778;SDS011;33538;48.432;11.350;2023-05-31T01:50:45;1.88;;;1.40;;
47778;SDS011;33538;48.432;11.350;2023-05-31T01:53:12;6.38;;;1.80;;
47778;SDS011;33538;48.432;11.350;2023-05-31T01:55:39;2.03;;;1.50;;
47778;SDS011;33538;48.432;11.350;2023-05-31T01:58:06;2.42;;;1.55;;
47778;SDS011;33538;48.432;11.350;2023-05-31T02:00:33;2.55;;;1.50;;
47778;SDS011;33538;48.432;11.350;2023-05-31T02:03:03;2.38;;;1.55;;
47778;SDS011;33538;48.432;11.350;2023-05-31T02:05:30;2.80;;;1.60;;
47778;SDS011;33538;48.432;11.350;2023-05-31T02:07:57;3.88;;;1.85;;
47778;SDS011;33538;48.432;11.350;2023-05-31T02:10:24;2.78;;;1.48;;
47778;SDS011;33538;48.432;11.350;2023-05-31T02:12:51;3.03;;;1.65;;
47778;SDS011;33538;48.432;11.350;2023-05-31T02:15:17;2.78;;;1.30;;
47778;SDS011;33538;48.432;11.350;2023-05-31T02:17:45;2.88;;;1.65;;
47778;SDS011;33538;48.432;11.350;2023-05-31T02:20:13;3.60;;;1.40;;
47778;SDS011;33538;48.432;11.350;2023-05-31T02:22:40;2.60;;;1.60;;
47778;SDS011;33538;48.432;11.350;2023-05-31T02:25:08;2.60;;;1.60;;
47778;SDS011;33538;48.432;11.350;2023-05-31T02:27:35;2.47;;;1.40;;
47778;SDS011;33538;48.432;11.350;2023-05-31T02:30:03;6.40;;;1.60;;
47778;SDS011;33538;48.432;11.350;2023-05-31T02:32:30;2.97;;;1.80;;
47778;SDS011;33538;48.432;11.350;2023-05-31T02:34:57;4.32;;;1.38;;
47778;SDS011;33538;48.432;11.350;2023-05-31T02:37:25;2.13;;;1.40;;
47778;SDS011;33538;48.432;11.350;2023-05-31T02:39:52;4.47;;;1.75;;
47778;SDS011;33538;48.432;11.350;2023-05-31T02:42:19;4.15;;;1.20;;
47778;SDS011;33538;48.432;11.350;2023-05-31T02:44:46;2.47;;;1.65;;
47778;SDS011;33538;48.432;11.350;2023-05-31T02:47:12;4.80;;;1.90;;
47778;SDS011;33538;48.432;11.350;2023-05-31T02:49:39;2.13;;;1.48;;
47778;SDS011;33538;48.432;11.350;2023-05-31T02:52:06;2.33;;;1.35;;
47778;SDS011;33538;48.432;11.350;2023-05-31T02:54:34;3.65;;;1.60;;
47778;SDS011;33538;48.432;11.350;2023-05-31T02:57:01;3.40;;;1.70;;
47778;SDS011;33538;48.432;11.350;2023-05-31T02:59:28;1.42;;;1.20;;
47778;SDS011;33538;48.432;11.350;2023-05-31T03:01:55;5.15;;;1.85;;
47778;SDS011;33538;48.432;11.350;2023-05-31T03:04:22;1.88;;;1.15;;
47778;SDS011;33538;48.432;11.350;2023-05-31T03:06:48;5.40;;;1.83;;
47778;SDS011;33538;48.432;11.350;2023-05-31T03:09:15;3.17;;;1.73;;
47778;SDS011;33538;48.432;11.350;2023-05-31T03:11:43;3.67;;;1.25;;
47778;SDS011;33538;48.432;11.350;2023-05-31T03:14:11;3.35;;;1.48;;
47778;SDS011;33538;48.432;11.350;2023-05-31T03:16:38;3.28;;;1.50;;
47778;SDS011;33538;48.432;11.350;2023-05-31T03:19:04;2.38;;;1.38;;
47778;SDS011;33538;48.432;11.350;2023-05-31T03:21:31;4.60;;;2.00;;
47778;SDS011;33538;48.432;11.350;2023-05-31T03:23:58;1.77;;;1.40;;
47778;SDS011;33538;48.432;11.350;2023-05-31T03:26:25;2.95;;;1.73;;
47778;SDS011;33538;48.432;11.350;2023-05-31T03:28:53;2.67;;;1.50;;
47778;SDS011;33538;48.432;11.350;2023-05-31T03:31:20;2.63;;;1.70;;
47778;SDS011;33538;48.432;11.350;2023-05-31T03:33:46;3.00;;;1.75;;
47778;SDS011;33538;48.432;11.350;2023-05-31T03:36:13;3.10;;;1.42;;
47778;SDS011;33538;48.432;11.350;2023-05-31T03:38:40;2.95;;;1.67;;
47778;SDS011;33538;48.432;11.350;2023-05-31T03:41:07;4.43;;;1.58;;
47778;SDS011;33538;48.432;11.350;2023-05-31T03:43:34;3.22;;;1.92;;
47778;SDS011;33538;48.432;11.350;2023-05-31T03:46:02;4.60;;;2.17;;
47778;SDS011;33538;48.432;11.350;2023-05-31T03:48:29;2.42;;;1.40;;
47778;SDS011;33538;48.432;11.350;2023-05-31T03:50:56;8.43;;;1.77;;
47778;SDS011;33538;48.432;11.350;2023-05-31T03:53:23;1.88;;;1.10;;
47778;SDS011;33538;48.432;11.350;2023-05-31T03:55:50;2.55;;;1.60;;
47778;SDS011;33538;48.432;11.350;2023-05-31T03:58:17;4.65;;;1.80;;
47778;SDS011;33538;48.432;11.350;2023-05-31T04:00:45;4.03;;;1.58;;
47778;SDS011;33538;48.432;11.350;2023-05-31T04:03:13;2.67;;;1.27;;
47778;SDS011;33538;48.432;11.350;2023-05-31T04:05:40;2.42;;;1.42;;
47778;SDS011;33538;48.432;11.350;2023-05-31T04:08:07;3.28;;;1.83;;
47778;SDS011;33538;48.432;11.350;2023-05-31T04:10:34;2.28;;;1.73;;
47778;SDS011;33538;48.432;11.350;2023-05-31T04:13:01;6.57;;;1.70;;
47778;SDS011;33538;48.432;11.350;2023-05-31T04:15:27;3.38;;;1.90;;
47778;SDS011;33538;48.432;11.350;2023-05-31T04:17:54;3.10;;;1.60;;
47778;SDS011;33538;48.432;11.350;2023-05-31T04:20:22;3.17;;;1.38;;
47778;SDS011;33538;48.432;11.350;2023-05-31T04:22:49;3.67;;;1.88;;
47778;SDS011;33538;48.432;11.350;2023-05-31T04:25:16;3.70;;;1.50;;
47778;SDS011;33538;48.432;11.350;2023-05-31T04:27:43;2.42;;;1.40;;
47778;SDS011;33538;48.432;11.350;2023-05-31T04:30:10;3.33;;;1.50;;
47778;SDS011;33538;48.432;11.350;2023-05-31T04:32:37;2.95;;;1.30;;
47778;SDS011;33538;48.432;11.350;2023-05-31T04:35:04;2.30;;;1.40;;
47778;SDS011;33538;48.432;11.350;2023-05-31T04:37:33;2.67;;;1.60;;
47778;SDS011;33538;48.432;11.350;2023-05-31T04:40:03;1.55;;;1.30;;
47778;SDS011;33538;48.432;11.350;2023-05-31T04:42:31;4.78;;;1.30;;
47778;SDS011;33538;48.432;11.350;2023-05-31T04:44:58;4.57;;;1.75;;
47778;SDS011;33538;48.432;11.350;2023-05-31T04:47:25;1.83;;;1.30;;
47778;SDS011;33538;48.432;11.350;2023-05-31T04:49:51;2.75;;;1.45;;
47778;SDS011;33538;48.432;11.350;2023-05-31T04:52:20;4.53;;;1.75;;
47778;SDS011;33538;48.432;11.350;2023-05-31T04:54:48;2.65;;;1.50;;
47778;SDS011;33538;48.432;11.350;2023-05-31T04:57:15;3.17;;;1.40;;
47778;SDS011;33538;48.432;11.350;2023-05-31T04:59:45;1.60;;;1.25;;
47778;SDS011;33538;48.432;11.350;2023-05-31T05:02:12;5.78;;;1.80;;
47778;SDS011;33538;48.432;11.350;2023-05-31T05:04:38;2.40;;;1.60;;
47778;SDS011;33538;48.432;11.350;2023-05-31T05:07:05;5.60;;;1.98;;
47778;SDS011;33538;48.432;11.350;2023-05-31T05:09:32;5.65;;;2.17;;
47778;SDS011;33538;48.432;11.350;2023-05-31T05:12:00;5.32;;;1.98;;
47778;SDS011;33538;48.432;11.350;2023-05-31T05:14:27;4.00;;;1.45;;
47778;SDS011;33538;48.432;11.350;2023-05-31T05:16:54;3.90;;;2.42;;
47778;SDS011;33538;48.432;11.350;2023-05-31T05:19:21;5.15;;;1.95;;
47778;SDS011;33538;48.432;11.350;2023-05-31T05:21:48;3.38;;;1.75;;
47778;SDS011;33538;48.432;11.350;2023-05-31T05:24:14;1.88;;;1.30;;
47778;SDS011;33538;48.432;11.350;2023-05-31T05:26:41;3.63;;;1.52;;
47778;SDS011;33538;48.432;11.350;2023-05-31T05:29:09;4.85;;;1.67;;
47778;SDS011;33538;48.432;11.350;2023-05-31T05:31:36;6.72;;;2.33;;
47778;SDS011;33538;48.432;11.350;2023-05-31T05:34:03;2.92;;;1.50;;
47778;SDS011;33538;48.432;11.350;2023-05-31T05:36:30;2.85;;;1.52;;
47778;SDS011;33538;48.432;11.350;2023-05-31T05:38:57;3.80;;;1.50;;
47778;SDS011;33538;48.432;11.350;2023-05-31T05:41:23;3.28;;;1.50;;
47778;SDS011;33538;48.432;11.350;2023-05-31T05:43:50;4.05;;;1.70;;
47778;SDS011;33538;48.432;11.350;2023-05-31T05:46:18;2.67;;;1.30;;
47778;SDS011;33538;48.432;11.350;2023-05-31T05:48:45;3.08;;;1.70;;
47778;SDS011;33538;48.432;11.350;2023-05-31T05:51:12;2.13;;;1.50;;
47778;SDS011;33538;48.432;11.350;2023-05-31T05:53:38;2.97;;;1.50;;
47778;SDS011;33538;48.432;11.350;2023-05-31T05:56:05;2.75;;;1.63;;
47778;SDS011;33538;48.432;11.350;2023-05-31T05:58:32;6.07;;;1.70;;
47778;SDS011;33538;48.432;11.350;2023-05-31T06:00:59;3.65;;;1.60;;
47778;SDS011;33538;48.432;11.350;2023-05-31T06:03:27;8.40;;;1.50;;
47778;SDS011;33538;48.432;11.350;2023-05-31T06:05:54;5.85;;;1.88;;
47778;SDS011;33538;48.432;11.350;2023-05-31T06:08:21;3.65;;;1.70;;
47778;SDS011;33538;48.432;11.350;2023-05-31T06:10:48;3.83;;;1.75;;
47778;SDS011;33538;48.432;11.350;2023-05-31T06:13:15;3.15;;;1.63;;
47778;SDS011;33538;48.432;11.350;2023-05-31T06:15:41;4.03;;;1.42;;
47778;SDS011;33538;48.432;11.350;2023-05-31T06:18:08;4.68;;;1.70;;
47778;SDS011;33538;48.432;11.350;2023-05-31T06:20:36;3.80;;;1.88;;
47778;SDS011;33538;48.432;11.350;2023-05-31T06:23:03;4.15;;;1.88;;
47778;SDS011;33538;48.432;11.350;2023-05-31T06:25:30;4.22;;;1.60;;
47778;SDS011;33538;48.432;11.350;2023-05-31T06:27:57;2.80;;;1.50;;
47778;SDS011;33538;48.432;11.350;2023-05-31T06:30:23;2.70;;;1.80;;
47778;SDS011;33538;48.432;11.350;2023-05-31T06:32:50;4.70;;;1.85;;
47778;SDS011;33538;48.432;11.350;2023-05-31T06:35:17;6.30;;;1.70;;
47778;SDS011;33538;48.432;11.350;2023-05-31T06:37:45;3.50;;;1.45;;
47778;SDS011;33538;48.432;11.350;2023-05-31T06:40:12;8.93;;;1.67;;
47778;SDS011;33538;48.432;11.350;2023-05-31T06:42:39;5.13;;;1.67;;
47778;SDS011;33538;48.432;11.350;2023-05-31T06:45:06;5.55;;;1.88;;
47778;SDS011;33538;48.432;11.350;2023-05-31T06:47:33;2.90;;;1.20;;
47778;SDS011;33538;48.432;11.350;2023-05-31T06:50:00;4.30;;;1.48;;
47778;SDS011;33538;48.432;11.350;2023-05-31T06:52:27;3.22;;;2.03;;
47778;SDS011;33538;48.432;11.350;2023-05-31T06:54:55;2.90;;;1.60;;
47778;SDS011;33538;48.432;11.350;2023-05-31T06:57:22;5.03;;;1.83;;
47778;SDS011;33538;48.432;11.350;2023-05-31T06:59:49;3.97;;;1.92;;
47778;SDS011;33538;48.432;11.350;2023-05-31T07:02:15;3.20;;;1.85;;
47778;SDS011;33538;48.432;11.350;2023-05-31T07:04:42;4.53;;;1.92;;
47778;SDS011;33538;48.432;11.350;2023-05-31T07:07:09;3.80;;;1.30;;
47778;SDS011;33538;48.432;11.350;2023-05-31T07:09:36;4.35;;;1.90;;
47778;SDS011;33538;48.432;11.350;2023-05-31T07:12:04;5.45;;;1.73;;
47778;SDS011;33538;48.432;11.350;2023-05-31T07:14:31;3.08;;;1.30;;
47778;SDS011;33538;48.432;11.350;2023-05-31T07:16:58;2.85;;;1.63;;
47778;SDS011;33538;48.432;11.350;2023-05-31T07:19:25;4.65;;;1.58;;
47778;SDS011;33538;48.432;11.350;2023-05-31T07:21:54;3.70;;;1.50;;
47778;SDS011;33538;48.432;11.350;2023-05-31T07:24:21;4.38;;;1.75;;
47778;SDS011;33538;48.432;11.350;2023-05-31T07:26:48;2.90;;;1.60;;
47778;SDS011;33538;48.432;11.350;2023-05-31T07:29:16;3.88;;;1.67;;
47778;SDS011;33538;48.432;11.350;2023-05-31T07:31:43;4.60;;;1.80;;
47778;SDS011;33538;48.432;11.350;2023-05-31T07:34:09;3.22;;;1.65;;
47778;SDS011;33538;48.432;11.350;2023-05-31T07:36:36;4.28;;;2.15;;
47778;SDS011;33538;48.432;11.350;2023-05-31T07:39:03;5.22;;;1.92;;
47778;SDS011;33538;48.432;11.350;2023-05-31T07:41:30;2.67;;;1.63;;
47778;SDS011;33538;48.432;11.350;2023-05-31T07:43:56;4.75;;;1.85;;
47778;SDS011;33538;48.432;11.350;2023-05-31T07:46:25;3.65;;;1.63;;
47778;SDS011;33538;48.432;11.350;2023-05-31T07:48:51;5.80;;;1.85;;
47778;SDS011;33538;48.432;11.350;2023-05-31T07:51:18;2.92;;;1.60;;
47778;SDS011;33538;48.432;11.350;2023-05-31T07:53:45;1.90;;;1.35;;
47778;SDS011;33538;48.432;11.350;2023-05-31T07:56:12;3.33;;;1.45;;
47778;SDS011;33538;48.432;11.350;2023-05-31T07:58:39;3.03;;;1.70;;
47778;SDS011;33538;48.432;11.350;2023-05-31T08:01:06;1.95;;;1.50;;
47778;SDS011;33538;48.432;11.350;2023-05-31T08:03:34;6.47;;;1.70;;
47778;SDS011;33538;48.432;11.350;2023-05-31T08:06:01;6.05;;;2.03;;
47778;SDS011;33538;48.432;11.350;2023-05-31T08:08:28;3.38;;;2.10;;
47778;SDS011;33538;48.432;11.350;2023-05-31T08:10:55;7.43;;;2.30;;
47778;SDS011;33538;48.432;11.350;2023-05-31T08:13:22;3.90;;;1.63;;
47778;SDS011;33538;48.432;11.350;2023-05-31T08:15:48;2.80;;;1.60;;
47778;SDS011;33538;48.432;11.350;2023-05-31T08:18:15;5.30;;;1.90;;
47778;SDS011;33538;48.432;11.350;2023-05-31T08:20:43;4.28;;;1.60;;
47778;SDS011;33538;48.432;11.350;2023-05-31T08:23:16;4.05;;;1.90;;
47778;SDS011;33538;48.432;11.350;2023-05-31T08:25:43;3.70;;;1.70;;
47778;SDS011;33538;48.432;11.350;2023-05-31T08:28:10;5.07;;;1.73;;
47778;SDS011;33538;48.432;11.350;2023-05-31T08:30:36;5.00;;;1.58;;
47778;SDS011;33538;48.432;11.350;2023-05-31T08:33:03;3.72;;;1.23;;
47778;SDS011;33538;48.432;11.350;2023-05-31T08:35:30;5.60;;;1.80;;
47778;SDS011;33538;48.432;11.350;2023-05-31T08:37:59;4.72;;;1.60;;
47778;SDS011;33538;48.432;11.350;2023-05-31T08:40:25;4.80;;;1.58;;
47778;SDS011;33538;48.432;11.350;2023-05-31T08:42:55;5.55;;;1.70;;
47778;SDS011;33538;48.432;11.350;2023-05-31T08:45:26;4.10;;;1.63;;
47778;SDS011;33538;48.432;11.350;2023-05-31T08:47:55;2.28;;;1.38;;
47778;SDS011;33538;48.432;11.350;2023-05-31T08:50:27;4.43;;;1.45;;
47778;SDS011;33538;48.432;11.350;2023-05-31T08:52:55;2.47;;;1.35;;
47778;SDS011;33538;48.432;11.350;2023-05-31T08:55:24;6.90;;;1.67;;
47778;SDS011;33538;48.432;11.350;2023-05-31T08:57:52;7.90;;;1.60;;
47778;SDS011;33538;48.432;11.350;2023-05-31T09:00:20;2.22;;;1.60;;
47778;SDS011;33538;48.432;11.350;2023-05-31T09:02:47;5.50;;;2.38;;
47778;SDS011;33538;48.432;11.350;2023-05-31T09:05:15;5.32;;;1.65;;
47778;SDS011;33538;48.432;11.350;2023-05-31T09:07:42;3.22;;;1.77;;
47778;SDS011;33538;48.432;11.350;2023-05-31T09:10:09;3.35;;;1.63;;
47778;SDS011;33538;48.432;11.350;2023-05-31T09:12:37;4.78;;;1.90;;
47778;SDS011;33538;48.432;11.350;2023-05-31T09:15:04;4.78;;;1.83;;
47778;SDS011;33538;48.432;11.350;2023-05-31T09:17:33;3.00;;;1.80;;
47778;SDS011;33538;48.432;11.350;2023-05-31T09:20:00;7.43;;;2.10;;
47778;SDS011;33538;48.432;11.350;2023-05-31T09:22:27;3.45;;;1.77;;
47778;SDS011;33538;48.432;11.350;2023-05-31T09:24:54;4.10;;;1.52;;
47778;SDS011;33538;48.432;11.350;2023-05-31T09:27:22;2.53;;;1.52;;
47778;SDS011;33538;48.432;11.350;2023-05-31T09:29:54;4.82;;;1.65;;
47778;SDS011;33538;48.432;11.350;2023-05-31T09:32:21;5.13;;;1.60;;
47778;SDS011;33538;48.432;11.350;2023-05-31T09:34:48;4.10;;;1.85;;
47778;SDS011;33538;48.432;11.350;2023-05-31T09:37:20;4.22;;;1.70;;
47778;SDS011;33538;48.432;11.350;2023-05-31T09:39:54;4.25;;;1.80;;
47778;SDS011;33538;48.432;11.350;2023-05-31T09:42:21;8.02;;;2.10;;
47778;SDS011;33538;48.432;11.350;2023-05-31T09:44:50;3.20;;;1.70;;
47778;SDS011;33538;48.432;11.350;2023-05-31T09:47:18;2.92;;;1.60;;
47778;SDS011;33538;48.432;11.350;2023-05-31T09:49:49;15.45;;;1.50;;
47778;SDS011;33538;48.432;11.350;2023-05-31T09:52:16;3.80;;;1.70;;
47778;SDS011;33538;48.432;11.350;2023-05-31T09:54:43;4.22;;;2.28;;
47778;SDS011;33538;48.432;11.350;2023-05-31T09:57:13;4.65;;;1.65;;
47778;SDS011;33538;48.432;11.350;2023-05-31T09:59:56;2.75;;;1.80;;
47778;SDS011;33538;48.432;11.350;2023-05-31T10:02:24;3.78;;;1.48;;
47778;SDS011;33538;48.432;11.350;2023-05-31T10:04:51;2.05;;;1.30;;
47778;SDS011;33538;48.432;11.350;2023-05-31T10:07:20;5.05;;;1.80;;
47778;SDS011;33538;48.432;11.350;2023-05-31T10:09:47;3.13;;;1.92;;
47778;SDS011;33538;48.432;11.350;2023-05-31T10:12:14;2.00;;;1.55;;
47778;SDS011;33538;48.432;11.350;2023-05-31T10:14:45;3.15;;;1.80;;
47778;SDS011;33538;48.432;11.350;2023-05-31T10:17:20;5.78;;;1.60;;
47778;SDS011;33538;48.432;11.350;2023-05-31T10:19:54;5.45;;;1.75;;
47778;SDS011;33538;48.432;11.350;2023-05-31T10:22:26;4.80;;;1.75;;
47778;SDS011;33538;48.432;11.350;2023-05-31T10:24:57;4.07;;;1.45;;
47778;SDS011;33538;48.432;11.350;2023-05-31T10:27:29;4.63;;;1.90;;
47778;SDS011;33538;48.432;11.350;2023-05-31T10:30:02;4.22;;;1.90;;
47778;SDS011;33538;48.432;11.350;2023-05-31T10:32:33;3.05;;;1.60;;
47778;SDS011;33538;48.432;11.350;2023-05-31T10:35:05;3.65;;;1.63;;
47778;SDS011;33538;48.432;11.350;2023-05-31T10:37:32;3.72;;;1.88;;
47778;SDS011;33538;48.432;11.350;2023-05-31T10:40:01;1.98;;;1.40;;
47778;SDS011;33538;48.432;11.350;2023-05-31T10:42:33;5.22;;;1.83;;
47778;SDS011;33538;48.432;11.350;2023-05-31T10:45:08;4.65;;;1.70;;
47778;SDS011;33538;48.432;11.350;2023-05-31T10:47:42;3.10;;;1.80;;
47778;SDS011;33538;48.432;11.350;2023-05-31T10:50:17;3.42;;;1.60;;
47778;SDS011;33538;48.432;11.350;2023-05-31T10:52:44;4.65;;;1.75;;
47778;SDS011;33538;48.432;11.350;2023-05-31T10:55:17;2.53;;;1.50;;
47778;SDS011;33538;48.432;11.350;2023-05-31T10:57:45;4.20;;;1.92;;
47778;SDS011;33538;48.432;11.350;2023-05-31T11:00:18;2.55;;;1.50;;
47778;SDS011;33538;48.432;11.350;2023-05-31T11:02:48;5.32;;;1.70;;
47778;SDS011;33538;48.432;11.350;2023-05-31T11:05:20;4.82;;;1.60;;
47778;SDS011;33538;48.432;11.350;2023-05-31T11:07:47;5.40;;;1.95;;
47778;SDS011;33538;48.432;11.350;2023-05-31T11:10:23;4.28;;;1.70;;
47778;SDS011;33538;48.432;11.350;2023-05-31T11:12:51;2.35;;;1.60;;
47778;SDS011;33538;48.432;11.350;2023-05-31T11:15:18;3.28;;;1.85;;
47778;SDS011;33538;48.432;11.350;2023-05-31T11:17:53;9.27;;;2.33;;
47778;SDS011;33538;48.432;11.350;2023-05-31T11:20:21;4.85;;;1.85;;
47778;SDS011;33538;48.432;11.350;2023-05-31T11:22:49;6.15;;;2.00;;
47778;SDS011;33538;48.432;11.350;2023-05-31T11:26:08;2.05;;;1.60;;
47778;SDS011;33538;48.432;11.350;2023-05-31T11:28:54;2.03;;;1.40;;
47778;SDS011;33538;48.432;11.350;2023-05-31T11:34:26;3.53;;;1.50;;
47778;SDS011;33538;48.432;11.350;2023-05-31T11:36:56;2.53;;;1.80;;
47778;SDS011;33538;48.432;11.350;2023-05-31T11:39:24;6.20;;;1.95;;
47778;SDS011;33538;48.432;11.350;2023-05-31T11:41:53;2.75;;;1.60;;
47778;SDS011;33538;48.432;11.350;2023-05-31T11:44:24;4.57;;;1.58;;
47778;SDS011;33538;48.432;11.350;2023-05-31T11:46:55;2.67;;;1.92;;
47778;SDS011;33538;48.432;11.350;2023-05-31T11:49:27;3.65;;;2.28;;
47778;SDS011;33538;48.432;11.350;2023-05-31T11:51:55;8.30;;;1.92;;
47778;SDS011;33538;48.432;11.350;2023-05-31T11:54:29;3.22;;;1.73;;
47778;SDS011;33538;48.432;11.350;2023-05-31T11:57:00;3.50;;;1.90;;
47778;SDS011;33538;48.432;11.350;2023-05-31T11:59:30;6.93;;;2.15;;
47778;SDS011;33538;48.432;11.350;2023-05-31T12:01:57;4.80;;;1.75;;
47778;SDS011;33538;48.432;11.350;2023-05-31T12:04:32;3.90;;;1.92;;
47778;SDS011;33538;48.432;11.350;2023-05-31T12:07:00;2.45;;;1.63;;
47778;SDS011;33538;48.432;11.350;2023-05-31T12:09:27;3.80;;;2.10;;
47778;SDS011;33538;48.432;11.350;2023-05-31T12:11:54;3.42;;;1.88;;
47778;SDS011;33538;48.432;11.350;2023-05-31T12:14:23;3.28;;;1.88;;
47778;SDS011;33538;48.432;11.350;2023-05-31T12:16:50;4.03;;;1.98;;
47778;SDS011;33538;48.432;11.350;2023-05-31T12:19:17;6.85;;;2.60;;
47778;SDS011;33538;48.432;11.350;2023-05-31T12:21:44;3.92;;;2.22;;
47778;SDS011;33538;48.432;11.350;2023-05-31T12:24:11;7.03;;;2.72;;
47778;SDS011;33538;48.432;11.350;2023-05-31T12:26:38;4.15;;;2.00;;
47778;SDS011;33538;48.432;11.350;2023-05-31T12:29:06;2.90;;;1.83;;
47778;SDS011;33538;48.432;11.350;2023-05-31T12:31:36;4.70;;;2.65;;
47778;SDS011;33538;48.432;11.350;2023-05-31T12:34:06;4.32;;;2.38;;
47778;SDS011;33538;48.432;11.350;2023-05-31T12:36:37;4.07;;;2.22;;
47778;SDS011;33538;48.432;11.350;2023-05-31T12:39:06;4.95;;;2.38;;
47778;SDS011;33538;48.432;11.350;2023-05-31T12:41:34;4.65;;;2.63;;
47778;SDS011;33538;48.432;11.350;2023-05-31T12:44:01;5.10;;;2.10;;
47778;SDS011;33538;48.432;11.350;2023-05-31T12:46:28;4.93;;;3.15;;
47778;SDS011;33538;48.432;11.350;2023-05-31T12:49:09;7.05;;;2.30;;
47778;SDS011;33538;48.432;11.350;2023-05-31T12:51:41;3.47;;;2.22;;
47778;SDS011;33538;48.432;11.350;2023-05-31T12:54:11;8.10;;;2.65;;
47778;SDS011;33538;48.432;11.350;2023-05-31T12:56:38;6.22;;;2.50;;
47778;SDS011;33538;48.432;11.350;2023-05-31T12:59:05;6.78;;;2.80;;
47778;SDS011;33538;48.432;11.350;2023-05-31T13:01:32;7.05;;;2.78;;
47778;SDS011;33538;48.432;11.350;2023-05-31T13:04:00;4.10;;;2.53;;
47778;SDS011;33538;48.432;11.350;2023-05-31T13:06:27;6.22;;;3.00;;
47778;SDS011;33538;48.432;11.350;2023-05-31T13:08:54;3.67;;;2.55;;
47778;SDS011;33538;48.432;11.350;2023-05-31T13:11:21;4.95;;;2.95;;
47778;SDS011;33538;48.432;11.350;2023-05-31T13:13:47;4.93;;;2.70;;
47778;SDS011;33538;48.432;11.350;2023-05-31T13:16:14;4.45;;;2.83;;
47778;SDS011;33538;48.432;11.350;2023-05-31T13:18:41;4.57;;;2.42;;
47778;SDS011;33538;48.432;11.350;2023-05-31T13:21:09;6.20;;;2.75;;
47778;SDS011;33538;48.432;11.350;2023-05-31T13:23:36;6.47;;;2.85;;
47778;SDS011;33538;48.432;11.350;2023-05-31T13:26:03;4.45;;;3.00;;
47778;SDS011;33538;48.432;11.350;2023-05-31T13:28:30;5.45;;;2.92;;
47778;SDS011;33538;48.432;11.350;2023-05-31T13:30:57;4.00;;;2.47;;
47778;SDS011;33538;48.432;11.350;2023-05-31T13:33:24;5.57;;;3.00;;
47778;SDS011;33538;48.432;11.350;2023-05-31T13:35:50;6.57;;;3.08;;
47778;SDS011;33538;48.432;11.350;2023-05-31T13:38:19;7.00;;;2.90;;
47778;SDS011;33538;48.432;11.350;2023-05-31T13:40:45;4.75;;;2.70;;
47778;SDS011;33538;48.432;11.350;2023-05-31T13:43:12;5.80;;;3.53;;
47778;SDS011;33538;48.432;11.350;2023-05-31T13:45:39;6.03;;;2.63;;
47778;SDS011;33538;48.432;11.350;2023-05-31T13:48:06;7.53;;;3.05;;
47778;SDS011;33538;48.432;11.350;2023-05-31T13:50:33;5.03;;;3.20;;
47778;SDS011;33538;48.432;11.350;2023-05-31T13:52:59;5.03;;;3.00;;
47778;SDS011;33538;48.432;11.350;2023-05-31T13:55:28;4.18;;;2.58;;
47778;SDS011;33538;48.432;11.350;2023-05-31T13:57:54;4.70;;;3.03;;
47778;SDS011;33538;48.432;11.350;2023-05-31T14:00:21;5.07;;;3.08;;
47778;SDS011;33538;48.432;11.350;2023-05-31T14:02:48;3.83;;;2.50;;
47778;SDS011;33538;48.432;11.350;2023-05-31T14:05:15;5.63;;;3.00;;
47778;SDS011;33538;48.432;11.350;2023-05-31T14:07:42;3.55;;;2.58;;
47778;SDS011;33538;48.432;11.350;2023-05-31T14:10:09;4.55;;;2.67;;
47778;SDS011;33538;48.432;11.350;2023-05-31T14:12:37;7.40;;;2.75;;
47778;SDS011;33538;48.432;11.350;2023-05-31T14:15:04;7.97;;;3.20;;
47778;SDS011;33538;48.432;11.350;2023-05-31T14:17:32;5.32;;;2.40;;
47778;SDS011;33538;48.432;11.350;2023-05-31T14:19:59;6.63;;;2.95;;
47778;SDS011;33538;48.432;11.350;2023-05-31T14:22:26;3.85;;;2.50;;
47778;SDS011;33538;48.432;11.350;2023-05-31T14:24:53;3.58;;;2.70;;
47778;SDS011;33538;48.432;11.350;2023-05-31T14:27:19;4.97;;;2.55;;
47778;SDS011;33538;48.432;11.350;2023-05-31T14:29:48;3.92;;;2.60;;
47778;SDS011;33538;48.432;11.350;2023-05-31T14:32:15;5.00;;;2.05;;
47778;SDS011;33538;48.432;11.350;2023-05-31T14:34:42;3.33;;;2.85;;
47778;SDS011;33538;48.432;11.350;2023-05-31T14:37:10;4.05;;;2.30;;
47778;SDS011;33538;48.432;11.350;2023-05-31T14:42:11;5.95;;;2.58;;
47778;SDS011;33538;48.432;11.350;2023-05-31T14:44:38;3.65;;;2.33;;
47778;SDS011;33538;48.432;11.350;2023-05-31T14:47:06;6.18;;;2.70;;
47778;SDS011;33538;48.432;11.350;2023-05-31T14:49:33;5.97;;;2.70;;